sensor_id;sensor_type;location;lat;lon;timestamp;pressure;altitude;pressure_sealevel;temperature;humidity
43039;BME280;62252;50.668;19.530;2022-11-20T00:01:04;97811.59;;;-7.88;100.00
43039;BME280;62252;50.668;19.530;2022-11-20T00:03:40;97820.75;;;-8.19;100.00
43039;BME280;62252;50.668;19.530;2022-11-20T00:06:17;97818.22;;;-8.16;100.00
43039;BME280;62252;50.668;19.530;2022-11-20T00:08:53;97823.13;;;-8.43;100.00
43039;BME280;62252;50.668;19.530;2022-11-20T00:11:29;97823.06;;;-8.47;100.00
43039;BME280;62252;50.668;19.530;2022-11-20T00:14:03;97822.09;;;-8.64;100.00
43039;BME280;62252;50.668;19.530;2022-11-20T00:16:41;97819.53;;;-8.66;100.00
43039;BME280;62252;50.668;19.530;2022-11-20T00:19:15;97818.66;;;-8.66;100.00
43039;BME280;62252;50.668;19.530;2022-11-20T00:21:52;97805.13;;;-8.59;100.00
43039;BME280;62252;50.668;19.530;2022-11-20T00:24:25;97810.13;;;-8.73;100.00
43039;BME280;62252;50.668;19.530;2022-11-20T00:26:59;97810.19;;;-8.67;100.00
43039;BME280;62252;50.668;19.530;2022-11-20T00:29:32;97811.91;;;-8.66;100.00
43039;BME280;62252;50.668;19.530;2022-11-20T00:32:06;97807.88;;;-8.37;100.00
43039;BME280;62252;50.668;19.530;2022-11-20T00:34:41;97796.88;;;-8.28;100.00
43039;BME280;62252;50.668;19.530;2022-11-20T00:37:18;97796.75;;;-8.48;100.00
43039;BME280;62252;50.668;19.530;2022-11-20T00:39:51;97792.56;;;-8.40;100.00
43039;BME280;62252;50.668;19.530;2022-11-20T00:42:24;97792.31;;;-8.70;100.00
43039;BME280;62252;50.668;19.530;2022-11-20T00:44:59;97799.88;;;-8.77;100.00
43039;BME280;62252;50.668;19.530;2022-11-20T00:47:32;97790.88;;;-8.33;100.00
43039;BME280;62252;50.668;19.530;2022-11-20T00:50:06;97796.19;;;-8.05;100.00
43039;BME280;62252;50.668;19.530;2022-11-20T00:52:42;97796.09;;;-8.21;100.00
43039;BME280;62252;50.668;19.530;2022-11-20T00:55:16;97792.72;;;-8.13;100.00
43039;BME280;62252;50.668;19.530;2022-11-20T00:57:51;97796.16;;;-8.03;100.00
43039;BME280;62252;50.668;19.530;2022-11-20T01:00:24;97800.34;;;-8.20;100.00
43039;BME280;62252;50.668;19.530;2022-11-20T01:02:58;97789.25;;;-8.28;100.00
43039;BME280;62252;50.668;19.530;2022-11-20T01:05:34;97790.84;;;-8.41;100.00
43039;BME280;62252;50.668;19.530;2022-11-20T01:08:10;97790.69;;;-8.62;100.00
43039;BME280;62252;50.668;19.530;2022-11-20T01:10:43;97788.19;;;-8.51;100.00
43039;BME280;62252;50.668;19.530;2022-11-20T01:13:16;97779.84;;;-8.35;100.00
43039;BME280;62252;50.668;19.530;2022-11-20T01:16:07;97778.13;;;-8.39;100.00
43039;BME280;62252;50.668;19.530;2022-11-20T01:18:42;97771.84;;;-8.79;100.00
43039;BME280;62252;50.668;19.530;2022-11-20T01:21:18;97766.22;;;-8.36;100.00
43039;BME280;62252;50.668;19.530;2022-11-20T01:23:57;97764.75;;;-7.93;100.00
43039;BME280;62252;50.668;19.530;2022-11-20T01:26:33;97770.66;;;-8.08;100.00
43039;BME280;62252;50.668;19.530;2022-11-20T01:29:08;97773.13;;;-8.21;100.00
43039;BME280;62252;50.668;19.530;2022-11-20T01:31:44;97769.72;;;-8.23;100.00
43039;BME280;62252;50.668;19.530;2022-11-20T01:34:20;97763.81;;;-8.15;100.00
43039;BME280;62252;50.668;19.530;2022-11-20T01:36:53;97763.13;;;-7.81;100.00
43039;BME280;62252;50.668;19.530;2022-11-20T01:39:30;97754.59;;;-7.90;100.00
43039;BME280;62252;50.668;19.530;2022-11-20T01:42:03;97758.72;;;-8.13;100.00
43039;BME280;62252;50.668;19.530;2022-11-20T01:44:54;97752.00;;;-7.93;100.00
43039;BME280;62252;50.668;19.530;2022-11-20T01:47:33;97754.53;;;-7.95;100.00
43039;BME280;62252;50.668;19.530;2022-11-20T01:50:13;97753.69;;;-8.00;100.00
43039;BME280;62252;50.668;19.530;2022-11-20T01:52:51;97763.00;;;-8.08;100.00
43039;BME280;62252;50.668;19.530;2022-11-20T01:55:32;97755.28;;;-8.23;100.00
43039;BME280;62252;50.668;19.530;2022-11-20T01:58:08;97751.91;;;-8.19;100.00
43039;BME280;62252;50.668;19.530;2022-11-20T02:00:42;97751.88;;;-8.22;100.00
43039;BME280;62252;50.668;19.530;2022-11-20T02:03:16;97756.09;;;-8.30;100.00
43039;BME280;62252;50.668;19.530;2022-11-20T02:05:55;97749.88;;;-8.66;100.00
43039;BME280;62252;50.668;19.530;2022-11-20T02:08:30;97746.69;;;-8.37;100.00
43039;BME280;62252;50.668;19.530;2022-11-20T02:11:07;97746.81;;;-8.16;100.00
43039;BME280;62252;50.668;19.530;2022-11-20T02:13:41;97744.25;;;-8.13;100.00
43039;BME280;62252;50.668;19.530;2022-11-20T02:16:16;97744.22;;;-8.22;100.00
43039;BME280;62252;50.668;19.530;2022-11-20T02:18:53;97745.78;;;-8.45;100.00
43039;BME280;62252;50.668;19.530;2022-11-20T02:21:35;97741.59;;;-8.35;100.00
43039;BME280;62252;50.668;19.530;2022-11-20T02:24:14;97745.06;;;-8.26;100.00
43039;BME280;62252;50.668;19.530;2022-11-20T02:26:51;97736.66;;;-8.07;100.00
43039;BME280;62252;50.668;19.530;2022-11-20T02:29:27;97739.28;;;-7.87;100.00
43039;BME280;62252;50.668;19.530;2022-11-20T02:32:03;97742.69;;;-7.84;100.00
43039;BME280;62252;50.668;19.530;2022-11-20T02:34:36;97753.72;;;-7.95;100.00
43039;BME280;62252;50.668;19.530;2022-11-20T02:37:10;97758.00;;;-7.85;100.00
43039;BME280;62252;50.668;19.530;2022-11-20T02:39:47;97757.09;;;-7.96;100.00
43039;BME280;62252;50.668;19.530;2022-11-20T02:42:21;97764.63;;;-8.20;100.00
43039;BME280;62252;50.668;19.530;2022-11-20T02:44:55;97772.19;;;-8.31;100.00
43039;BME280;62252;50.668;19.530;2022-11-20T02:47:28;97767.16;;;-8.22;100.00
43039;BME280;62252;50.668;19.530;2022-11-20T02:50:01;97773.09;;;-8.26;100.00
43039;BME280;62252;50.668;19.530;2022-11-20T02:52:35;97776.50;;;-8.22;100.00
43039;BME280;62252;50.668;19.530;2022-11-20T02:55:11;97773.91;;;-8.31;100.00
43039;BME280;62252;50.668;19.530;2022-11-20T02:57:45;97773.84;;;-8.40;100.00
43039;BME280;62252;50.668;19.530;2022-11-20T03:00:19;97772.22;;;-8.26;100.00
43039;BME280;62252;50.668;19.530;2022-11-20T03:02:52;97780.59;;;-8.47;100.00
43039;BME280;62252;50.668;19.530;2022-11-20T03:05:25;97776.44;;;-8.36;100.00
43039;BME280;62252;50.668;19.530;2022-11-20T03:07:59;97766.25;;;-8.33;100.00
43039;BME280;62252;50.668;19.530;2022-11-20T03:10:35;97765.97;;;-8.75;100.00
43039;BME280;62252;50.668;19.530;2022-11-20T03:13:08;97771.19;;;-8.55;100.00
43039;BME280;62252;50.668;19.530;2022-11-20T03:15:42;97757.00;;;-8.16;100.00
43039;BME280;62252;50.668;19.530;2022-11-20T03:18:15;97760.38;;;-8.23;100.00
43039;BME280;62252;50.668;19.530;2022-11-20T03:20:48;97755.19;;;-8.35;100.00
43039;BME280;62252;50.668;19.530;2022-11-20T03:23:21;97760.38;;;-8.23;100.00
43039;BME280;62252;50.668;19.530;2022-11-20T03:26:07;97757.00;;;-8.19;100.00
43039;BME280;62252;50.668;19.530;2022-11-20T03:28:40;97757.81;;;-8.23;100.00
43039;BME280;62252;50.668;19.530;2022-11-20T03:31:15;97750.09;;;-8.38;100.00
43039;BME280;62252;50.668;19.530;2022-11-20T03:33:49;97751.13;;;-8.00;100.00
43039;BME280;62252;50.668;19.530;2022-11-20T03:36:22;97751.09;;;-8.07;100.00
43039;BME280;62252;50.668;19.530;2022-11-20T03:38:56;97750.22;;;-8.11;100.00
43039;BME280;62252;50.668;19.530;2022-11-20T03:41:36;97748.53;;;-8.10;100.00
43039;BME280;62252;50.668;19.530;2022-11-20T03:44:15;97759.56;;;-8.13;100.00
43039;BME280;62252;50.668;19.530;2022-11-20T03:46:48;97746.81;;;-8.13;100.00
43039;BME280;62252;50.668;19.530;2022-11-20T03:49:22;97745.16;;;-8.05;100.00
43039;BME280;62252;50.668;19.530;2022-11-20T03:51:56;97744.38;;;-7.89;100.00
43039;BME280;62252;50.668;19.530;2022-11-20T03:54:29;97740.06;;;-7.99;100.00
43039;BME280;62252;50.668;19.530;2022-11-20T03:57:05;97735.81;;;-8.01;100.00
43039;BME280;62252;50.668;19.530;2022-11-20T03:59:38;97748.59;;;-7.97;100.00
43039;BME280;62252;50.668;19.530;2022-11-20T04:02:11;97749.50;;;-7.87;100.00
43039;BME280;62252;50.668;19.530;2022-11-20T04:04:45;97742.72;;;-7.69;100.00
43039;BME280;62252;50.668;19.530;2022-11-20T04:07:18;97747.69;;;-8.08;100.00
43039;BME280;62252;50.668;19.530;2022-11-20T04:09:52;97748.59;;;-7.91;100.00
43039;BME280;62252;50.668;19.530;2022-11-20T04:12:31;97747.72;;;-8.00;100.00
43039;BME280;62252;50.668;19.530;2022-11-20T04:15:05;97746.06;;;-7.95;100.00
43039;BME280;62252;50.668;19.530;2022-11-20T04:17:39;97746.06;;;-7.91;100.00
43039;BME280;62252;50.668;19.530;2022-11-20T04:20:15;97745.94;;;-8.16;100.00
43039;BME280;62252;50.668;19.530;2022-11-20T04:22:49;97745.13;;;-8.11;100.00
43039;BME280;62252;50.668;19.530;2022-11-20T04:25:22;97737.44;;;-8.15;100.00
43039;BME280;62252;50.668;19.530;2022-11-20T04:27:58;97742.59;;;-8.02;100.00
43039;BME280;62252;50.668;19.530;2022-11-20T04:30:31;97740.84;;;-8.15;100.00
43039;BME280;62252;50.668;19.530;2022-11-20T04:33:04;97739.06;;;-8.35;100.00
43039;BME280;62252;50.668;19.530;2022-11-20T04:35:38;97735.56;;;-8.48;100.00
43039;BME280;62252;50.668;19.530;2022-11-20T04:38:11;97734.03;;;-8.19;100.00
43039;BME280;62252;50.668;19.530;2022-11-20T04:40:45;97729.78;;;-8.18;100.00
43039;BME280;62252;50.668;19.530;2022-11-20T04:43:21;97724.78;;;-7.99;100.00
43039;BME280;62252;50.668;19.530;2022-11-20T04:45:56;97726.44;;;-8.08;100.00
43039;BME280;62252;50.668;19.530;2022-11-20T04:48:30;97717.88;;;-8.21;100.00
43039;BME280;62252;50.668;19.530;2022-11-20T04:51:06;97721.28;;;-8.20;100.00
43039;BME280;62252;50.668;19.530;2022-11-20T04:53:40;97712.78;;;-8.21;100.00
43039;BME280;62252;50.668;19.530;2022-11-20T04:56:14;97712.81;;;-8.15;100.00
43039;BME280;62252;50.668;19.530;2022-11-20T04:58:50;97705.25;;;-7.94;100.00
43039;BME280;62252;50.668;19.530;2022-11-20T05:01:24;97707.88;;;-7.56;100.00
43039;BME280;62252;50.668;19.530;2022-11-20T05:03:58;97694.25;;;-7.60;100.00
43039;BME280;62252;50.668;19.530;2022-11-20T05:06:33;97694.13;;;-8.08;100.00
43039;BME280;62252;50.668;19.530;2022-11-20T05:09:06;97694.91;;;-8.22;100.00
43039;BME280;62252;50.668;19.530;2022-11-20T05:11:39;97688.22;;;-7.98;100.00
43039;BME280;62252;50.668;19.530;2022-11-20T05:14:16;97681.44;;;-7.70;100.00
43039;BME280;62252;50.668;19.530;2022-11-20T05:16:49;97688.16;;;-8.10;100.00
43039;BME280;62252;50.668;19.530;2022-11-20T05:19:22;97687.22;;;-8.34;100.00
43039;BME280;62252;50.668;19.530;2022-11-20T05:21:55;97695.56;;;-8.58;100.00
43039;BME280;62252;50.668;19.530;2022-11-20T05:24:29;97703.25;;;-8.52;100.00
43039;BME280;62252;50.668;19.530;2022-11-20T05:27:03;97698.91;;;-8.71;100.00
43039;BME280;62252;50.668;19.530;2022-11-20T05:29:39;97687.06;;;-8.63;100.00
43039;BME280;62252;50.668;19.530;2022-11-20T05:32:12;97684.47;;;-8.67;100.00
43039;BME280;62252;50.668;19.530;2022-11-20T05:34:47;97693.81;;;-8.65;100.00
43039;BME280;62252;50.668;19.530;2022-11-20T05:37:21;97681.81;;;-8.85;100.00
43039;BME280;62252;50.668;19.530;2022-11-20T05:39:55;97687.91;;;-8.65;100.00
43039;BME280;62252;50.668;19.530;2022-11-20T05:42:30;97682.09;;;-8.39;100.00
43039;BME280;62252;50.668;19.530;2022-11-20T05:45:08;97688.53;;;-8.95;100.00
43039;BME280;62252;50.668;19.530;2022-11-20T05:47:42;97687.50;;;-9.19;100.00
43039;BME280;62252;50.668;19.530;2022-11-20T05:50:20;97688.38;;;-9.13;100.00
43039;BME280;62252;50.668;19.530;2022-11-20T05:52:53;97685.94;;;-8.99;100.00
43039;BME280;62252;50.668;19.530;2022-11-20T05:55:28;97695.44;;;-8.77;100.00
43039;BME280;62252;50.668;19.530;2022-11-20T05:58:03;97696.38;;;-8.65;100.00
43039;BME280;62252;50.668;19.530;2022-11-20T06:00:40;97698.56;;;-9.14;100.00
43039;BME280;62252;50.668;19.530;2022-11-20T06:03:13;97699.22;;;-9.35;100.00
43039;BME280;62252;50.668;19.530;2022-11-20T06:05:51;97697.53;;;-9.36;100.00
43039;BME280;62252;50.668;19.530;2022-11-20T06:08:27;97692.59;;;-9.19;100.00
43039;BME280;62252;50.668;19.530;2022-11-20T06:11:04;97689.47;;;-8.84;100.00
43039;BME280;62252;50.668;19.530;2022-11-20T06:13:39;97697.09;;;-8.85;100.00
43039;BME280;62252;50.668;19.530;2022-11-20T06:16:17;97699.69;;;-8.78;100.00
43039;BME280;62252;50.668;19.530;2022-11-20T06:18:51;97691.16;;;-8.86;100.00
43039;BME280;62252;50.668;19.530;2022-11-20T06:21:24;97691.66;;;-9.29;100.00
43039;BME280;62252;50.668;19.530;2022-11-20T06:23:58;97686.63;;;-9.24;100.00
43039;BME280;62252;50.668;19.530;2022-11-20T06:26:31;97688.47;;;-9.04;100.00
43039;BME280;62252;50.668;19.530;2022-11-20T06:29:04;97691.56;;;-9.38;100.00
43039;BME280;62252;50.668;19.530;2022-11-20T06:31:40;97695.38;;;-8.88;100.00
43039;BME280;62252;50.668;19.530;2022-11-20T06:34:13;97688.66;;;-8.77;100.00
43039;BME280;62252;50.668;19.530;2022-11-20T06:36:47;97693.81;;;-8.65;100.00
43039;BME280;62252;50.668;19.530;2022-11-20T06:39:20;97698.09;;;-8.61;100.00
43039;BME280;62252;50.668;19.530;2022-11-20T06:41:53;97698.97;;;-8.60;100.00
43039;BME280;62252;50.668;19.530;2022-11-20T06:44:27;97701.66;;;-8.38;100.00
43039;BME280;62252;50.668;19.530;2022-11-20T06:47:03;97701.69;;;-8.29;100.00
43039;BME280;62252;50.668;19.530;2022-11-20T06:49:36;97713.56;;;-8.32;100.00
43039;BME280;62252;50.668;19.530;2022-11-20T06:52:10;97710.91;;;-8.47;100.00
43039;BME280;62252;50.668;19.530;2022-11-20T06:54:43;97693.91;;;-8.56;100.00
43039;BME280;62252;50.668;19.530;2022-11-20T06:57:16;97706.75;;;-8.38;100.00
43039;BME280;62252;50.668;19.530;2022-11-20T06:59:50;97704.19;;;-8.35;100.00
43039;BME280;62252;50.668;19.530;2022-11-20T07:02:25;97702.44;;;-8.46;100.00
43039;BME280;62252;50.668;19.530;2022-11-20T07:04:59;97695.63;;;-8.47;100.00
43039;BME280;62252;50.668;19.530;2022-11-20T07:07:32;97695.81;;;-8.16;100.00
43039;BME280;62252;50.668;19.530;2022-11-20T07:10:06;97692.34;;;-8.25;100.00
43039;BME280;62252;50.668;19.530;2022-11-20T07:12:41;97694.06;;;-8.20;100.00
43039;BME280;62252;50.668;19.530;2022-11-20T07:15:15;97690.72;;;-8.08;100.00
43039;BME280;62252;50.668;19.530;2022-11-20T07:17:51;97691.66;;;-7.90;100.00
43039;BME280;62252;50.668;19.530;2022-11-20T07:20:25;97682.28;;;-7.77;100.00
43039;BME280;62252;50.668;19.530;2022-11-20T07:22:58;97684.88;;;-7.68;100.00
43039;BME280;62252;50.668;19.530;2022-11-20T07:25:32;97677.22;;;-7.68;100.00
43039;BME280;62252;50.668;19.530;2022-11-20T07:28:05;97679.78;;;-7.64;100.00
43039;BME280;62252;50.668;19.530;2022-11-20T07:30:39;97684.84;;;-7.73;100.00
43039;BME280;62252;50.668;19.530;2022-11-20T07:33:16;97683.19;;;-7.62;100.00
43039;BME280;62252;50.668;19.530;2022-11-20T07:35:49;97669.56;;;-7.68;100.00
43039;BME280;62252;50.668;19.530;2022-11-20T07:38:22;97681.47;;;-7.63;100.00
43039;BME280;62252;50.668;19.530;2022-11-20T07:40:55;97664.47;;;-7.67;100.00
43039;BME280;62252;50.668;19.530;2022-11-20T07:43:29;97669.63;;;-7.35;100.00
43039;BME280;62252;50.668;19.530;2022-11-20T07:46:03;97662.81;;;-7.24;100.00
43039;BME280;62252;50.668;19.530;2022-11-20T07:48:39;97660.25;;;-7.08;100.00
43039;BME280;62252;50.668;19.530;2022-11-20T07:51:12;97662.81;;;-7.05;100.00
43039;BME280;62252;50.668;19.530;2022-11-20T07:53:50;97667.06;;;-7.07;100.00
43039;BME280;62252;50.668;19.530;2022-11-20T07:56:24;97669.59;;;-6.95;100.00
43039;BME280;62252;50.668;19.530;2022-11-20T07:58:57;97677.28;;;-6.81;100.00
43039;BME280;62252;50.668;19.530;2022-11-20T08:01:30;97676.41;;;-6.71;100.00
43039;BME280;62252;50.668;19.530;2022-11-20T08:04:06;97671.31;;;-6.80;100.00
43039;BME280;62252;50.668;19.530;2022-11-20T08:06:45;97682.38;;;-6.65;100.00
43039;BME280;62252;50.668;19.530;2022-11-20T08:09:18;97676.41;;;-6.64;100.00
43039;BME280;62252;50.668;19.530;2022-11-20T08:11:51;97679.78;;;-6.53;100.00
43039;BME280;62252;50.668;19.530;2022-11-20T08:14:38;97677.19;;;-6.47;100.00
43039;BME280;62252;50.668;19.530;2022-11-20T08:17:11;97670.44;;;-6.54;100.00
43039;BME280;62252;50.668;19.530;2022-11-20T08:19:47;97655.91;;;-6.53;100.00
43039;BME280;62252;50.668;19.530;2022-11-20T08:22:20;97668.66;;;-6.29;100.00
43039;BME280;62252;50.668;19.530;2022-11-20T08:24:53;97683.13;;;-6.34;100.00
43039;BME280;62252;50.668;19.530;2022-11-20T08:27:27;97672.91;;;-6.33;100.00
43039;BME280;62252;50.668;19.530;2022-11-20T08:30:00;97673.75;;;-6.28;100.00
43039;BME280;62252;50.668;19.530;2022-11-20T08:32:34;97680.53;;;-6.15;100.00
43039;BME280;62252;50.668;19.530;2022-11-20T08:35:10;97681.38;;;-6.16;100.00
43039;BME280;62252;50.668;19.530;2022-11-20T08:37:46;97675.41;;;-6.10;100.00
43039;BME280;62252;50.668;19.530;2022-11-20T08:40:19;97677.00;;;-5.84;100.00
43039;BME280;62252;50.668;19.530;2022-11-20T08:42:52;97670.94;;;-5.69;100.00
43039;BME280;62252;50.668;19.530;2022-11-20T08:45:25;97672.75;;;-5.91;100.00
43039;BME280;62252;50.668;19.530;2022-11-20T08:48:00;97670.13;;;-5.73;100.00
43039;BME280;62252;50.668;19.530;2022-11-20T08:50:36;97676.94;;;-5.69;100.00
43039;BME280;62252;50.668;19.530;2022-11-20T08:53:10;97674.22;;;-5.47;100.00
43039;BME280;62252;50.668;19.530;2022-11-20T08:55:43;97665.72;;;-5.54;100.00
43039;BME280;62252;50.668;19.530;2022-11-20T08:58:16;97670.06;;;-5.65;100.00
43039;BME280;62252;50.668;19.530;2022-11-20T09:00:49;97670.88;;;-5.59;100.00
43039;BME280;62252;50.668;19.530;2022-11-20T09:03:23;97664.81;;;-5.45;100.00
43039;BME280;62252;50.668;19.530;2022-11-20T09:06:05;97662.28;;;-5.52;100.00
43039;BME280;62252;50.668;19.530;2022-11-20T09:08:38;97669.88;;;-5.39;100.00
43039;BME280;62252;50.668;19.530;2022-11-20T09:11:11;97664.91;;;-5.57;100.00
43039;BME280;62252;50.668;19.530;2022-11-20T09:13:45;97662.94;;;-5.19;100.00
43039;BME280;62252;50.668;19.530;2022-11-20T09:16:18;97656.25;;;-5.38;100.00
43039;BME280;62252;50.668;19.530;2022-11-20T09:18:51;97659.69;;;-5.42;100.00
43039;BME280;62252;50.668;19.530;2022-11-20T09:21:27;97654.69;;;-5.64;100.00
43039;BME280;62252;50.668;19.530;2022-11-20T09:24:01;97652.00;;;-5.44;100.00
43039;BME280;62252;50.668;19.530;2022-11-20T09:26:34;97656.13;;;-5.22;100.00
43039;BME280;62252;50.668;19.530;2022-11-20T09:29:07;97648.31;;;-5.08;100.00
43039;BME280;62252;50.668;19.530;2022-11-20T09:31:41;97648.75;;;-4.61;100.00
43039;BME280;62252;50.668;19.530;2022-11-20T09:34:14;97643.06;;;-4.92;100.00
43039;BME280;62252;50.668;19.530;2022-11-20T09:36:50;97649.91;;;-4.95;100.00
43039;BME280;62252;50.668;19.530;2022-11-20T09:39:24;97640.47;;;-4.90;100.00
43039;BME280;62252;50.668;19.530;2022-11-20T09:42:18;97625.84;;;-4.79;100.00
43039;BME280;62252;50.668;19.530;2022-11-20T09:45:10;97624.66;;;-4.48;100.00
43039;BME280;62252;50.668;19.530;2022-11-20T09:48:00;97627.50;;;-4.74;100.00
43039;BME280;62252;50.668;19.530;2022-11-20T09:50:43;97620.38;;;-4.46;100.00
43039;BME280;62252;50.668;19.530;2022-11-20T09:53:28;97620.22;;;-4.33;100.00
43039;BME280;62252;50.668;19.530;2022-11-20T09:56:04;97622.63;;;-4.18;100.00
43039;BME280;62252;50.668;19.530;2022-11-20T09:58:40;97614.06;;;-3.55;100.00
43039;BME280;62252;50.668;19.530;2022-11-20T10:01:16;97606.28;;;-3.50;100.00
43039;BME280;62252;50.668;19.530;2022-11-20T10:03:54;97611.41;;;-2.96;100.00
43039;BME280;62252;50.668;19.530;2022-11-20T10:06:31;97611.34;;;-2.93;100.00
43039;BME280;62252;50.668;19.530;2022-11-20T10:09:21;97614.66;;;-3.36;100.00
43039;BME280;62252;50.668;19.530;2022-11-20T10:12:06;97612.59;;;-3.15;100.00
43039;BME280;62252;50.668;19.530;2022-11-20T10:14:52;97598.34;;;-2.85;100.00
43039;BME280;62252;50.668;19.530;2022-11-20T10:17:40;97610.78;;;-3.66;100.00
43039;BME280;62252;50.668;19.530;2022-11-20T10:20:19;97593.00;;;-2.72;100.00
43039;BME280;62252;50.668;19.530;2022-11-20T10:23:14;97605.97;;;-2.79;100.00
43039;BME280;62252;50.668;19.530;2022-11-20T10:25:58;97601.63;;;-2.76;100.00
43039;BME280;62252;50.668;19.530;2022-11-20T10:28:46;97602.41;;;-2.71;100.00
43039;BME280;62252;50.668;19.530;2022-11-20T10:31:30;97601.22;;;-2.55;100.00
43039;BME280;62252;50.668;19.530;2022-11-20T10:34:07;97602.47;;;-3.25;100.00
43039;BME280;62252;50.668;19.530;2022-11-20T10:36:52;97589.69;;;-2.80;100.00
43039;BME280;62252;50.668;19.530;2022-11-20T10:39:35;97590.03;;;-2.98;100.00
43039;BME280;62252;50.668;19.530;2022-11-20T10:42:17;97585.34;;;-3.26;100.00
43039;BME280;62252;50.668;19.530;2022-11-20T10:45:00;97580.06;;;-2.70;100.00
43039;BME280;62252;50.668;19.530;2022-11-20T10:47:36;97574.78;;;-2.63;100.00
43039;BME280;62252;50.668;19.530;2022-11-20T10:50:14;97578.72;;;-2.91;100.00
43039;BME280;62252;50.668;19.530;2022-11-20T10:52:58;97580.59;;;-2.99;100.00
43039;BME280;62252;50.668;19.530;2022-11-20T10:55:42;97581.69;;;-3.12;100.00
43039;BME280;62252;50.668;19.530;2022-11-20T10:58:27;97567.38;;;-2.34;100.00
43039;BME280;62252;50.668;19.530;2022-11-20T11:01:14;97572.59;;;-2.38;100.00
43039;BME280;62252;50.668;19.530;2022-11-20T11:03:49;97561.88;;;-2.17;100.00
43039;BME280;62252;50.668;19.530;2022-11-20T11:06:29;97564.09;;;-2.42;100.00
43039;BME280;62252;50.668;19.530;2022-11-20T11:09:13;97557.94;;;-2.79;100.00
43039;BME280;62252;50.668;19.530;2022-11-20T11:11:48;97562.53;;;-2.49;100.00
43039;BME280;62252;50.668;19.530;2022-11-20T11:14:24;97561.94;;;-2.64;100.00
43039;BME280;62252;50.668;19.530;2022-11-20T11:16:58;97555.31;;;-2.76;100.00
43039;BME280;62252;50.668;19.530;2022-11-20T11:19:31;97561.44;;;-2.81;100.00
43039;BME280;62252;50.668;19.530;2022-11-20T11:22:12;97560.69;;;-2.89;100.00
43039;BME280;62252;50.668;19.530;2022-11-20T11:24:52;97566.50;;;-2.78;100.00
43039;BME280;62252;50.668;19.530;2022-11-20T11:27:25;97569.53;;;-2.57;100.00
43039;BME280;62252;50.668;19.530;2022-11-20T11:30:12;97569.69;;;-2.66;100.00
43039;BME280;62252;50.668;19.530;2022-11-20T11:32:46;97564.44;;;-2.58;100.00
43039;BME280;62252;50.668;19.530;2022-11-20T11:35:24;97566.59;;;-2.81;100.00
43039;BME280;62252;50.668;19.530;2022-11-20T11:38:04;97567.84;;;-3.05;100.00
43039;BME280;62252;50.668;19.530;2022-11-20T11:40:39;97552.84;;;-2.80;100.00
43039;BME280;62252;50.668;19.530;2022-11-20T11:43:21;97540.75;;;-2.77;100.00
43039;BME280;62252;50.668;19.530;2022-11-20T11:46:26;97549.94;;;-2.21;100.00
43039;BME280;62252;50.668;19.530;2022-11-20T11:49:00;97545.97;;;-2.37;100.00
43039;BME280;62252;50.668;19.530;2022-11-20T11:51:38;97534.94;;;-2.03;100.00
43039;BME280;62252;50.668;19.530;2022-11-20T11:54:16;97525.66;;;-2.51;100.00
43039;BME280;62252;50.668;19.530;2022-11-20T11:56:51;97518.31;;;-2.70;100.00
43039;BME280;62252;50.668;19.530;2022-11-20T11:59:28;97522.78;;;-2.37;100.00
43039;BME280;62252;50.668;19.530;2022-11-20T12:02:19;97518.78;;;-2.50;100.00
43039;BME280;62252;50.668;19.530;2022-11-20T12:04:58;97514.06;;;-2.71;100.00
43039;BME280;62252;50.668;19.530;2022-11-20T12:07:39;97508.19;;;-1.97;100.00
43039;BME280;62252;50.668;19.530;2022-11-20T12:10:21;97507.84;;;-2.20;100.00
43039;BME280;62252;50.668;19.530;2022-11-20T12:13:00;97503.16;;;-2.02;100.00
43039;BME280;62252;50.668;19.530;2022-11-20T12:15:35;97505.47;;;-2.28;100.00
43039;BME280;62252;50.668;19.530;2022-11-20T12:18:15;97499.25;;;-2.19;100.00
43039;BME280;62252;50.668;19.530;2022-11-20T12:21:04;97503.72;;;-2.70;100.00
43039;BME280;62252;50.668;19.530;2022-11-20T12:26:56;97499.84;;;-2.08;100.00
43039;BME280;62252;50.668;19.530;2022-11-20T12:29:41;97492.66;;;-2.31;100.00
43039;BME280;62252;50.668;19.530;2022-11-20T12:32:37;97496.47;;;-2.10;100.00
43039;BME280;62252;50.668;19.530;2022-11-20T12:38:34;97491.41;;;-2.54;100.00
43039;BME280;62252;50.668;19.530;2022-11-20T12:41:14;97492.22;;;-2.52;100.00
43039;BME280;62252;50.668;19.530;2022-11-20T12:44:19;97489.84;;;-2.61;100.00
43039;BME280;62252;50.668;19.530;2022-11-20T12:47:17;97484.19;;;-1.98;100.00
43039;BME280;62252;50.668;19.530;2022-11-20T12:50:01;97467.88;;;-2.36;100.00
43039;BME280;62252;50.668;19.530;2022-11-20T12:52:46;97471.88;;;-2.64;100.00
43039;BME280;62252;50.668;19.530;2022-11-20T12:55:28;97470.91;;;-2.59;100.00
43039;BME280;62252;50.668;19.530;2022-11-20T12:58:11;97460.88;;;-2.71;100.00
43039;BME280;62252;50.668;19.530;2022-11-20T13:00:56;97463.19;;;-3.01;100.00
43039;BME280;62252;50.668;19.530;2022-11-20T13:03:41;97451.91;;;-2.52;100.00
43039;BME280;62252;50.668;19.530;2022-11-20T13:06:16;97447.47;;;-2.86;100.00
43039;BME280;62252;50.668;19.530;2022-11-20T13:08:54;97448.75;;;-2.66;100.00
43039;BME280;62252;50.668;19.530;2022-11-20T13:11:34;97444.09;;;-2.47;100.00
43039;BME280;62252;50.668;19.530;2022-11-20T13:14:21;97449.59;;;-3.06;100.00
43039;BME280;62252;50.668;19.530;2022-11-20T13:17:02;97452.28;;;-2.70;100.00
43039;BME280;62252;50.668;19.530;2022-11-20T13:19:38;97442.50;;;-2.53;100.00
43039;BME280;62252;50.668;19.530;2022-11-20T13:22:11;97438.75;;;-2.00;100.00
43039;BME280;62252;50.668;19.530;2022-11-20T13:24:50;97449.03;;;-2.78;100.00
43039;BME280;62252;50.668;19.530;2022-11-20T13:27:24;97438.94;;;-2.88;100.00
43039;BME280;62252;50.668;19.530;2022-11-20T13:30:11;97435.00;;;-2.24;100.00
43039;BME280;62252;50.668;19.530;2022-11-20T13:32:54;97433.03;;;-2.93;100.00
43039;BME280;62252;50.668;19.530;2022-11-20T13:35:30;97436.06;;;-2.73;100.00